createdAt,value
2023-03-04T00:00:14.553Z,0.90
2023-03-04T00:02:42.724Z,0.90
2023-03-04T00:05:11.148Z,0.90
2023-03-04T00:07:39.367Z,0.90
2023-03-04T00:10:08.500Z,0.90
2023-03-04T00:12:38.005Z,0.90
2023-03-04T00:15:07.528Z,0.90
2023-03-04T00:17:35.850Z,0.90
2023-03-04T00:20:04.132Z,0.90
2023-03-04T00:22:32.380Z,0.90
2023-03-04T00:25:00.491Z,0.90
2023-03-04T00:27:28.822Z,0.80
2023-03-04T00:29:58.633Z,0.70
2023-03-04T00:32:26.859Z,0.60
2023-03-04T00:34:55.018Z,0.60
2023-03-04T00:37:23.192Z,0.50
2023-03-04T00:39:51.826Z,0.40
2023-03-04T00:42:19.946Z,0.40
2023-03-04T00:44:49.684Z,0.30
2023-03-04T00:47:19.268Z,0.30
2023-03-04T00:49:47.360Z,0.40
2023-03-04T00:52:15.578Z,0.40
2023-03-04T00:54:43.895Z,0.30
2023-03-04T00:57:12.031Z,0.30
2023-03-04T00:59:40.840Z,0.30
2023-03-04T01:02:09.069Z,0.20
2023-03-04T01:04:39.041Z,0.20
2023-03-04T01:07:07.347Z,0.20
2023-03-04T01:09:35.474Z,0.20
2023-03-04T01:12:04.269Z,0.20
2023-03-04T01:14:32.508Z,0.20
2023-03-04T01:17:00.748Z,0.20
2023-03-04T01:19:29.070Z,0.20
2023-03-04T01:21:58.813Z,0.20
2023-03-04T01:24:27.022Z,0.10
2023-03-04T01:26:55.321Z,0.10
2023-03-04T01:29:24.254Z,0.10
2023-03-04T01:31:52.450Z,0.10
2023-03-04T01:34:21.775Z,0.00
2023-03-04T01:36:49.975Z,-0.10
2023-03-04T01:39:21.754Z,-0.10
2023-03-04T01:41:50.200Z,-0.20
2023-03-04T01:44:18.805Z,-0.20
2023-03-04T01:46:51.414Z,-0.30
2023-03-04T01:49:20.232Z,-0.30
2023-03-04T01:51:52.265Z,-0.30
2023-03-04T01:54:23.778Z,-0.30
2023-03-04T01:56:53.572Z,-0.30
2023-03-04T01:59:24.678Z,-0.40
2023-03-04T02:01:55.411Z,-0.40
2023-03-04T02:04:26.115Z,-0.30
2023-03-04T02:06:55.117Z,-0.30
2023-03-04T02:09:24.918Z,-0.30
2023-03-04T02:11:54.041Z,-0.30
2023-03-04T02:14:23.049Z,-0.30
2023-03-04T02:16:51.703Z,-0.30
2023-03-04T02:19:28.026Z,-0.40
2023-03-04T02:21:58.304Z,-0.40
2023-03-04T02:24:32.743Z,-0.40
2023-03-04T02:27:02.403Z,-0.40
2023-03-04T02:29:30.792Z,-0.40
2023-03-04T02:31:59.428Z,-0.40
2023-03-04T02:34:31.555Z,-0.50
2023-03-04T02:37:01.108Z,-0.50
2023-03-04T02:39:34.267Z,-0.50
2023-03-04T02:42:05.026Z,-0.60
2023-03-04T02:44:37.109Z,-0.60
2023-03-04T02:47:09.008Z,-0.60
2023-03-04T02:49:39.138Z,-0.60
2023-03-04T02:52:09.298Z,-0.70
2023-03-04T02:54:39.444Z,-0.70
2023-03-04T02:57:11.033Z,-0.70
2023-03-04T02:59:42.835Z,-0.70
2023-03-04T03:02:15.689Z,-0.70
2023-03-04T03:04:44.193Z,-0.70
2023-03-04T03:07:15.190Z,-0.70
2023-03-04T03:09:43.575Z,-0.70
2023-03-04T03:12:13.508Z,-0.70
2023-03-04T03:14:41.941Z,-0.70
2023-03-04T03:17:12.917Z,-0.80
2023-03-04T03:19:41.168Z,-0.70
2023-03-04T03:22:11.340Z,-0.80
2023-03-04T03:24:39.550Z,-0.80
2023-03-04T03:27:07.795Z,-0.80
2023-03-04T03:29:37.637Z,-0.70
2023-03-04T03:32:08.933Z,-0.70
2023-03-04T03:34:37.122Z,-0.70
2023-03-04T03:37:05.432Z,-0.60
2023-03-04T03:39:33.626Z,-0.60
2023-03-04T03:42:01.722Z,-0.60
2023-03-04T03:44:29.949Z,-0.60
2023-03-04T03:46:59.758Z,-0.60
2023-03-04T03:49:28.186Z,-0.70
2023-03-04T03:51:56.700Z,-0.70
2023-03-04T03:54:24.842Z,-0.70
2023-03-04T03:56:52.846Z,-0.70
2023-03-04T03:59:21.326Z,-0.70
2023-03-04T04:01:49.567Z,-0.60
2023-03-04T04:04:19.233Z,-0.60
2023-03-04T04:06:47.610Z,-0.60
2023-03-04T04:09:15.815Z,-0.60
2023-03-04T04:11:43.972Z,-0.60
2023-03-04T04:14:14.008Z,-0.60
2023-03-04T04:16:42.703Z,-0.60
2023-03-04T04:19:17.286Z,-0.60
2023-03-04T04:21:47.023Z,-0.60
2023-03-04T04:24:15.278Z,-0.60
2023-03-04T04:26:43.861Z,-0.50
2023-03-04T04:29:15.522Z,-0.60
2023-03-04T04:31:43.747Z,-0.60
2023-03-04T04:34:11.971Z,-0.70
2023-03-04T04:36:40.046Z,-0.70
2023-03-04T04:39:09.681Z,-0.70
2023-03-04T04:41:40.041Z,-0.70
2023-03-04T04:44:08.676Z,-0.80
2023-03-04T04:46:37.299Z,-0.80
2023-03-04T04:49:06.352Z,-0.90
2023-03-04T04:51:35.171Z,-0.90
2023-03-04T04:54:04.263Z,-0.90
2023-03-04T04:56:34.560Z,-1.00
2023-03-04T04:59:05.839Z,-1.00
2023-03-04T05:01:34.033Z,-1.00
2023-03-04T05:04:02.229Z,-1.00
2023-03-04T05:06:30.500Z,-0.90
2023-03-04T05:08:58.642Z,-1.00
2023-03-04T05:11:26.877Z,-0.90
2023-03-04T05:13:56.415Z,-0.90
2023-03-04T05:16:24.879Z,-0.90
2023-03-04T05:18:53.007Z,-0.90
2023-03-04T05:21:21.266Z,-0.90
2023-03-04T05:23:49.395Z,-0.90
2023-03-04T05:26:19.028Z,-0.90
2023-03-04T05:28:47.558Z,-0.90
2023-03-04T05:31:17.875Z,-0.90
2023-03-04T05:33:46.129Z,-0.90
2023-03-04T05:36:14.252Z,-0.90
2023-03-04T05:38:42.366Z,-0.90
2023-03-04T05:41:10.639Z,-0.90
2023-03-04T05:43:42.886Z,-0.90
2023-03-04T05:46:16.864Z,-1.00
2023-03-04T05:48:45.999Z,-0.90
2023-03-04T05:51:14.160Z,-1.00
2023-03-04T05:53:42.994Z,-1.00
2023-03-04T05:56:12.775Z,-1.00
2023-03-04T05:58:40.886Z,-1.00
2023-03-04T06:01:09.365Z,-1.00
2023-03-04T06:03:38.959Z,-1.00
2023-03-04T06:06:07.571Z,-0.90
2023-03-04T06:08:35.678Z,-0.90
2023-03-04T06:11:05.579Z,-0.90
2023-03-04T06:13:34.014Z,-0.90
2023-03-04T06:16:02.292Z,-0.90
2023-03-04T06:18:31.025Z,-0.90
2023-03-04T06:21:02.434Z,-0.90
2023-03-04T06:23:31.851Z,-0.90
2023-03-04T06:26:01.685Z,-1.00
2023-03-04T06:28:30.433Z,-1.00
2023-03-04T06:30:59.430Z,-1.00
2023-03-04T06:33:27.872Z,-0.90
2023-03-04T06:35:57.886Z,-0.90
2023-03-04T06:38:27.935Z,-0.80
2023-03-04T06:40:57.589Z,-0.80
2023-03-04T06:43:26.005Z,-0.80
2023-03-04T06:45:54.302Z,-0.80
2023-03-04T06:48:22.577Z,-0.70
2023-03-04T06:50:50.983Z,-0.70
2023-03-04T06:53:19.160Z,-0.60
2023-03-04T06:55:49.620Z,-0.60
2023-03-04T06:58:18.206Z,-0.50
2023-03-04T07:00:46.525Z,-0.50
2023-03-04T07:03:14.941Z,-0.40
2023-03-04T07:05:44.120Z,-0.40
2023-03-04T07:08:12.494Z,-0.30
2023-03-04T07:10:40.724Z,-0.30
2023-03-04T07:13:10.269Z,-0.30
2023-03-04T07:15:38.900Z,-0.20
2023-03-04T07:18:07.122Z,-0.20
2023-03-04T07:20:35.502Z,-0.10
2023-03-04T07:23:03.755Z,-0.10
2023-03-04T07:25:31.900Z,0.00
2023-03-04T07:28:00.144Z,0.00
2023-03-04T07:30:29.876Z,0.00
2023-03-04T07:32:59.244Z,0.10
2023-03-04T07:35:27.541Z,0.20
2023-03-04T07:37:55.800Z,0.20
2023-03-04T07:40:24.178Z,0.30
2023-03-04T07:42:52.518Z,0.30
2023-03-04T07:45:21.424Z,0.40
2023-03-04T07:47:51.744Z,0.40
2023-03-04T07:50:20.445Z,0.40
2023-03-04T07:52:51.272Z,0.60
2023-03-04T07:55:19.889Z,0.60
2023-03-04T07:57:48.906Z,0.60
2023-03-04T08:00:18.696Z,0.70
2023-03-04T08:02:46.927Z,0.70
2023-03-04T08:05:16.722Z,0.80
2023-03-04T08:07:45.013Z,0.90
2023-03-04T08:10:13.236Z,0.90
2023-03-04T08:12:41.510Z,1.00
2023-03-04T08:15:10.663Z,1.00
2023-03-04T08:17:39.530Z,1.00
2023-03-04T08:20:08.810Z,1.10
2023-03-04T08:22:38.314Z,1.10
2023-03-04T08:25:07.026Z,1.20
2023-03-04T08:27:37.355Z,1.20
2023-03-04T08:30:05.994Z,1.30
2023-03-04T08:32:34.234Z,1.30
2023-03-04T08:35:02.881Z,1.40
2023-03-04T08:37:31.141Z,1.40
2023-03-04T08:40:00.517Z,1.40
2023-03-04T08:42:28.689Z,1.40
2023-03-04T08:44:56.696Z,1.50
2023-03-04T08:47:24.822Z,1.50
2023-03-04T08:49:53.051Z,1.60
2023-03-04T08:52:21.201Z,1.60
2023-03-04T08:54:49.337Z,1.70
2023-03-04T08:57:18.784Z,1.80
2023-03-04T08:59:46.872Z,1.90
2023-03-04T09:02:14.894Z,1.90
2023-03-04T09:04:43.055Z,1.90
2023-03-04T09:07:11.287Z,1.90
2023-03-04T09:09:39.379Z,1.90
2023-03-04T09:12:07.731Z,2.00
2023-03-04T09:14:37.250Z,2.00
2023-03-04T09:17:06.962Z,2.00
2023-03-04T09:19:35.114Z,2.00
2023-03-04T09:22:03.694Z,2.00
2023-03-04T09:24:32.645Z,2.00
2023-03-04T09:27:00.854Z,2.00
2023-03-04T09:29:28.907Z,2.10
2023-03-04T09:31:58.383Z,2.10
2023-03-04T09:34:26.460Z,2.30
2023-03-04T09:36:54.537Z,2.30
2023-03-04T09:39:22.584Z,2.40
2023-03-04T09:41:56.362Z,2.40
2023-03-04T09:44:27.209Z,2.50
2023-03-04T09:47:00.029Z,2.50
2023-03-04T09:49:28.838Z,2.40
2023-03-04T09:52:03.694Z,2.40
2023-03-04T09:54:51.819Z,2.40
2023-03-04T09:57:28.554Z,2.20
2023-03-04T10:00:07.906Z,2.20
2023-03-04T10:02:48.463Z,2.10
2023-03-04T10:05:20.694Z,2.00
2023-03-04T10:07:57.237Z,2.00
2023-03-04T10:10:29.379Z,2.20
2023-03-04T10:12:59.122Z,2.20
2023-03-04T10:15:35.113Z,2.30
2023-03-04T10:18:12.918Z,2.20
2023-03-04T10:20:53.740Z,2.10
2023-03-04T10:23:25.508Z,2.00
2023-03-04T10:25:54.860Z,2.10
2023-03-04T10:28:26.581Z,2.10
2023-03-04T10:31:00.811Z,2.00
2023-03-04T10:33:32.186Z,1.90
2023-03-04T10:36:03.882Z,1.90
2023-03-04T10:38:34.404Z,1.80
2023-03-04T10:41:03.163Z,1.80
2023-03-04T10:43:31.208Z,1.80
2023-03-04T10:46:01.382Z,1.90
2023-03-04T10:48:32.698Z,2.00
2023-03-04T10:51:14.706Z,1.90
2023-03-04T10:53:44.202Z,1.80
2023-03-04T10:56:32.551Z,1.80
2023-03-04T10:59:31.456Z,1.80
2023-03-04T11:02:00.010Z,1.80
2023-03-04T11:04:34.913Z,1.80
2023-03-04T11:07:03.532Z,1.90
2023-03-04T11:09:33.194Z,2.00
2023-03-04T11:12:02.417Z,1.90
2023-03-04T11:14:37.385Z,1.80
2023-03-04T11:17:22.039Z,1.70
2023-03-04T11:19:55.462Z,1.70
2023-03-04T11:22:25.205Z,1.60
2023-03-04T11:25:04.415Z,1.70
2023-03-04T11:27:41.433Z,1.60
2023-03-04T11:30:26.956Z,1.60
2023-03-04T11:33:01.959Z,1.50
2023-03-04T11:35:36.305Z,1.40
2023-03-04T11:38:09.950Z,1.50
2023-03-04T11:40:43.201Z,1.40
2023-03-04T11:43:18.065Z,1.40
2023-03-04T11:46:11.594Z,1.40
2023-03-04T11:48:50.585Z,1.50
2023-03-04T11:51:25.287Z,1.60
2023-03-04T11:54:02.877Z,1.50
2023-03-04T11:56:37.815Z,1.60
2023-03-04T11:59:23.659Z,1.70
2023-03-04T12:02:02.963Z,1.70
2023-03-04T12:04:43.616Z,1.70
2023-03-04T12:07:25.442Z,1.60
2023-03-04T12:10:05.788Z,1.70
2023-03-04T12:12:47.576Z,1.50
2023-03-04T12:15:22.526Z,1.40
2023-03-04T12:18:04.530Z,1.50
2023-03-04T12:21:08.049Z,1.50
2023-03-04T12:24:10.691Z,1.60
2023-03-04T12:26:43.412Z,1.50
2023-03-04T12:29:17.845Z,1.40
2023-03-04T12:31:47.894Z,1.40
2023-03-04T12:34:31.819Z,1.40
2023-03-04T12:37:21.258Z,1.40
2023-03-04T12:40:16.044Z,1.50
2023-03-04T12:42:59.384Z,1.50
2023-03-04T12:45:31.381Z,1.50
2023-03-04T12:48:07.713Z,1.40
2023-03-04T12:50:43.397Z,1.40
2023-03-04T12:53:22.125Z,1.40
2023-03-04T12:55:53.265Z,1.30
2023-03-04T12:58:25.218Z,1.10
2023-03-04T13:01:05.854Z,1.00
2023-03-04T13:03:41.894Z,1.00
2023-03-04T13:06:21.190Z,1.10
2023-03-04T13:09:00.637Z,1.10
2023-03-04T13:11:44.939Z,1.10
2023-03-04T13:14:27.082Z,1.10
2023-03-04T13:16:57.748Z,1.10
2023-03-04T13:19:52.550Z,1.10
2023-03-04T13:22:47.138Z,1.20
2023-03-04T13:25:42.395Z,1.20
2023-03-04T13:28:24.232Z,1.20
2023-03-04T13:31:18.253Z,1.20
2023-03-04T13:33:58.514Z,1.10
2023-03-04T13:36:35.609Z,1.10
2023-03-04T13:39:22.806Z,1.20
2023-03-04T13:41:53.647Z,1.10
2023-03-04T13:45:01.122Z,1.10
2023-03-04T13:47:48.744Z,1.10
2023-03-04T13:50:37.122Z,1.10
2023-03-04T13:53:42.257Z,1.10
2023-03-04T13:56:25.541Z,1.10
2023-03-04T13:59:03.095Z,1.10
2023-03-04T14:01:33.210Z,1.10
2023-03-04T14:04:11.869Z,1.10
2023-03-04T14:06:44.063Z,1.10
2023-03-04T14:09:15.726Z,1.00
2023-03-04T14:11:45.563Z,1.00
2023-03-04T14:14:16.831Z,1.00
2023-03-04T14:16:50.356Z,1.00
2023-03-04T14:19:25.792Z,1.00
2023-03-04T14:21:54.240Z,1.00
2023-03-04T14:24:23.598Z,1.00
2023-03-04T14:26:52.212Z,1.00
2023-03-04T14:29:23.603Z,0.90
2023-03-04T14:31:52.269Z,1.00
2023-03-04T14:34:26.601Z,1.10
2023-03-04T14:36:54.636Z,1.10
2023-03-04T14:39:25.819Z,1.10
2023-03-04T14:41:55.840Z,1.10
2023-03-04T14:44:36.832Z,1.10
2023-03-04T14:47:14.237Z,1.10
2023-03-04T14:49:44.293Z,1.20
2023-03-04T14:52:33.486Z,1.10
2023-03-04T14:55:10.172Z,1.20
2023-03-04T14:57:39.182Z,1.20
2023-03-04T15:00:25.745Z,1.20
2023-03-04T15:02:56.774Z,1.20
2023-03-04T15:05:29.136Z,1.20
2023-03-04T15:07:59.271Z,1.20
2023-03-04T15:10:30.624Z,1.30
2023-03-04T15:13:01.952Z,1.30
2023-03-04T15:15:42.373Z,1.40
2023-03-04T15:18:22.791Z,1.30
2023-03-04T15:20:57.772Z,1.40
2023-03-04T15:23:26.556Z,1.40
2023-03-04T15:25:56.738Z,1.40
2023-03-04T15:28:26.120Z,1.40
2023-03-04T15:30:54.705Z,1.40
2023-03-04T15:33:22.784Z,1.40
2023-03-04T15:35:57.864Z,1.40
2023-03-04T15:38:27.031Z,1.40
2023-03-04T15:40:56.502Z,1.40
2023-03-04T15:43:25.475Z,1.40
2023-03-04T15:45:54.814Z,1.40
2023-03-04T15:48:23.029Z,1.40
2023-03-04T15:50:55.866Z,1.40
2023-03-04T15:53:29.525Z,1.40
2023-03-04T15:55:57.806Z,1.40
2023-03-04T15:58:26.560Z,1.40
2023-03-04T16:00:54.582Z,1.40
2023-03-04T16:03:23.304Z,1.40
2023-03-04T16:05:53.274Z,1.30
2023-03-04T16:08:25.056Z,1.30
2023-03-04T16:10:55.075Z,1.30
2023-03-04T16:13:25.154Z,1.40
2023-03-04T16:15:53.349Z,1.40
2023-03-04T16:18:21.692Z,1.40
2023-03-04T16:20:51.069Z,1.40
2023-03-04T16:23:23.314Z,1.40
2023-03-04T16:25:55.902Z,1.40
2023-03-04T16:28:24.486Z,1.40
2023-03-04T16:30:52.877Z,1.40
2023-03-04T16:33:21.457Z,1.40
2023-03-04T16:35:51.669Z,1.40
2023-03-04T16:38:25.922Z,1.40
2023-03-04T16:40:56.859Z,1.40
2023-03-04T16:43:26.041Z,1.40
2023-03-04T16:45:54.914Z,1.40
2023-03-04T16:48:23.256Z,1.40
2023-03-04T16:50:51.713Z,1.40
2023-03-04T16:53:28.409Z,1.40
2023-03-04T16:55:59.444Z,1.40
2023-03-04T16:58:27.507Z,1.40
2023-03-04T17:00:56.409Z,1.40
2023-03-04T17:03:24.581Z,1.50
2023-03-04T17:05:52.613Z,1.50
2023-03-04T17:08:20.700Z,1.50
2023-03-04T17:10:48.892Z,1.40
2023-03-04T17:13:18.554Z,1.40
2023-03-04T17:15:46.967Z,1.40
2023-03-04T17:18:15.273Z,1.50
2023-03-04T17:20:43.362Z,1.50
2023-03-04T17:23:11.442Z,1.50
2023-03-04T17:25:39.454Z,1.50
2023-03-04T17:28:07.510Z,1.50
2023-03-04T17:30:37.062Z,1.40
2023-03-04T17:33:05.881Z,1.40
2023-03-04T17:35:34.781Z,1.40
2023-03-04T17:38:02.832Z,1.40
2023-03-04T17:40:30.974Z,1.40
2023-03-04T17:42:59.153Z,1.40
2023-03-04T17:45:27.280Z,1.40
2023-03-04T17:47:56.802Z,1.40
2023-03-04T17:50:24.810Z,1.50
2023-03-04T17:52:52.846Z,1.50
2023-03-04T17:55:21.799Z,1.50
2023-03-04T17:57:52.911Z,1.50
2023-03-04T18:00:22.035Z,1.50
2023-03-04T18:02:50.817Z,1.50
2023-03-04T18:05:20.372Z,1.50
2023-03-04T18:07:48.378Z,1.50
2023-03-04T18:10:16.549Z,1.50
2023-03-04T18:12:44.593Z,1.50
2023-03-04T18:15:12.876Z,1.50
2023-03-04T18:17:42.912Z,1.50
2023-03-04T18:20:12.911Z,1.50
2023-03-04T18:22:43.028Z,1.50
2023-03-04T18:25:12.904Z,1.50
2023-03-04T18:27:41.909Z,1.50
2023-03-04T18:30:11.835Z,1.50
2023-03-04T18:32:51.323Z,1.50
2023-03-04T18:35:20.551Z,1.50
2023-03-04T18:37:50.793Z,1.50
2023-03-04T18:40:19.465Z,1.50
2023-03-04T18:42:47.508Z,1.50
2023-03-04T18:45:16.987Z,1.50
2023-03-04T18:47:49.749Z,1.50
2023-03-04T18:50:18.934Z,1.50
2023-03-04T18:52:47.422Z,1.50
2023-03-04T18:55:18.800Z,1.50
2023-03-04T18:57:55.130Z,1.50
2023-03-04T19:00:25.397Z,1.50
2023-03-04T19:02:57.894Z,1.50
2023-03-04T19:05:28.776Z,1.50
2023-03-04T19:07:57.023Z,1.50
2023-03-04T19:10:27.347Z,1.50
2023-03-04T19:12:57.552Z,1.50
2023-03-04T19:15:25.803Z,1.50
2023-03-04T19:17:54.040Z,1.50
2023-03-04T19:20:22.952Z,1.50
2023-03-04T19:22:51.014Z,1.50
2023-03-04T19:25:19.915Z,1.50
2023-03-04T19:27:51.352Z,1.50
2023-03-04T19:30:20.013Z,1.50
2023-03-04T19:32:49.030Z,1.50
2023-03-04T19:35:17.439Z,1.50
2023-03-04T19:37:45.486Z,1.60
2023-03-04T19:40:14.108Z,1.60
2023-03-04T19:42:42.112Z,1.60
2023-03-04T19:45:11.930Z,1.60
2023-03-04T19:47:40.844Z,1.60
2023-03-04T19:50:12.392Z,1.60
2023-03-04T19:52:40.944Z,1.60
2023-03-04T19:55:10.136Z,1.60
2023-03-04T19:57:38.208Z,1.60
2023-03-04T20:00:07.224Z,1.60
2023-03-04T20:02:36.954Z,1.60
2023-03-04T20:05:05.615Z,1.60
2023-03-04T20:07:33.885Z,1.60
2023-03-04T20:10:02.056Z,1.60
2023-03-04T20:12:31.321Z,1.60
2023-03-04T20:14:59.659Z,1.60
2023-03-04T20:17:27.795Z,1.60
2023-03-04T20:19:57.608Z,1.60
2023-03-04T20:22:25.696Z,1.60
2023-03-04T20:24:54.902Z,1.60
2023-03-04T20:27:22.979Z,1.60
2023-03-04T20:29:51.040Z,1.60
2023-03-04T20:32:19.133Z,1.60
2023-03-04T20:34:48.512Z,1.60
2023-03-04T20:37:17.907Z,1.60
2023-03-04T20:39:46.565Z,1.60
2023-03-04T20:42:14.562Z,1.60
2023-03-04T20:44:42.703Z,1.60
2023-03-04T20:47:11.503Z,1.60
2023-03-04T20:49:39.764Z,1.60
2023-03-04T20:52:07.936Z,1.60
2023-03-04T20:54:41.337Z,1.60
2023-03-04T20:57:10.792Z,1.60
2023-03-04T20:59:39.861Z,1.60
2023-03-04T21:02:09.626Z,1.70
2023-03-04T21:04:37.769Z,1.70
2023-03-04T21:07:05.855Z,1.70
2023-03-04T21:09:34.765Z,1.60
2023-03-04T21:12:04.377Z,1.60
2023-03-04T21:14:33.386Z,1.60
2023-03-04T21:17:03.390Z,1.70
2023-03-04T21:19:33.066Z,1.60
2023-03-04T21:22:02.989Z,1.60
2023-03-04T21:24:32.942Z,1.60
2023-03-04T21:27:02.384Z,1.60
2023-03-04T21:29:31.884Z,1.70
2023-03-04T21:32:16.832Z,1.70
2023-03-04T21:34:51.873Z,1.60
2023-03-04T21:37:19.958Z,1.70
2023-03-04T21:39:48.074Z,1.60
2023-03-04T21:42:16.139Z,1.60
2023-03-04T21:44:49.580Z,1.60
2023-03-04T21:47:18.462Z,1.60
2023-03-04T21:49:47.773Z,1.60
2023-03-04T21:52:15.940Z,1.60
2023-03-04T21:54:44.147Z,1.60
2023-03-04T21:57:13.387Z,1.60
2023-03-04T21:59:41.733Z,1.60
2023-03-04T22:02:16.714Z,1.60
2023-03-04T22:04:44.928Z,1.60
2023-03-04T22:07:13.491Z,1.60
2023-03-04T22:09:41.575Z,1.60
2023-03-04T22:12:09.854Z,1.70
2023-03-04T22:14:38.064Z,1.70
2023-03-04T22:17:06.632Z,1.70
2023-03-04T22:19:36.154Z,1.70
2023-03-04T22:22:04.181Z,1.70
2023-03-04T22:24:32.162Z,1.70
2023-03-04T22:27:00.369Z,1.70
2023-03-04T22:29:28.551Z,1.80
2023-03-04T22:31:56.782Z,1.70
2023-03-04T22:34:25.113Z,1.70
2023-03-04T22:36:54.473Z,1.70
2023-03-04T22:39:23.089Z,1.70
2023-03-04T22:41:51.541Z,1.70
2023-03-04T22:44:19.994Z,1.60
2023-03-04T22:46:48.112Z,1.60
2023-03-04T22:49:16.696Z,1.60
2023-03-04T22:51:45.846Z,1.50
2023-03-04T22:54:16.954Z,1.50
2023-03-04T22:56:45.627Z,1.50
2023-03-04T22:59:13.756Z,1.50
2023-03-04T23:01:42.136Z,1.50
2023-03-04T23:04:10.236Z,1.50
2023-03-04T23:06:38.271Z,1.50
2023-03-04T23:09:06.700Z,1.50
2023-03-04T23:11:37.115Z,1.50
2023-03-04T23:14:07.991Z,1.50
2023-03-04T23:16:39.284Z,1.50
2023-03-04T23:19:08.224Z,1.60
2023-03-04T23:21:38.124Z,1.60
2023-03-04T23:24:08.472Z,1.60
2023-03-04T23:26:39.813Z,1.60
2023-03-04T23:29:09.896Z,1.60
2023-03-04T23:31:38.398Z,1.60
2023-03-04T23:34:07.096Z,1.60
2023-03-04T23:36:37.234Z,1.70
2023-03-04T23:39:06.782Z,1.60
2023-03-04T23:41:35.355Z,1.60
2023-03-04T23:44:05.779Z,1.60
2023-03-04T23:46:34.402Z,1.60
2023-03-04T23:49:02.377Z,1.60
2023-03-04T23:51:31.080Z,1.60
2023-03-04T23:53:59.832Z,1.60
2023-03-04T23:56:29.658Z,1.60
2023-03-04T23:58:59.012Z,1.60
